Red Oak, Oklahoma
Current Conditions -  °F | °C
As of 3:35 AM on Friday 19 Dec 2014 (Local Time) from KGZL Reporting Station
Haze Haze  
Wind Chill: 41°   Ceiling: 1600
Heat Index: 41°   Visibility: 5mi
Dew Point: 37°   Wind: 3mph
Humidity: 87%   Direction: 70°ENE
Pressure: 30.21"   Gusts: NA
Location:  34.95°N, 95.08°W
Report Text: KGZL 190935Z AUTO 07003KT 5SM BR OVC016 05/03 A3021 RMK AO2
Loading
Personal Weather Stations






























Interactive Weather Map New forecast layout! Learn more

10-Day Weather Forecast

Advertisements
Track Severe Weather on mobile